Gimli, Canada
Current Conditions -  °F | °C
As of 11:00 AM on Thursday 30 Oct 2014 (Local Time) from CYWG Reporting Station
Overcast Overcast  
Wind Chill: 22°   Ceiling: 3300
Heat Index: 34°   Visibility: 15mi
Dew Point: 25°   Wind: 22mph
Humidity: 70%   Direction: 350°N
Pressure: 30.33"   Gusts: 29mph
Location:  50.64°N, 96.99°W
Report Text: CYWG 301600Z 35019G25KT 15SM FEW015 OVC033 01/M04 A3033 RMK SF2SC6 SLP281
Loading
Personal Weather Stations






























Interactive Weather Map
Tropical Storm Tracking
New forecast layout! Learn more

10-Day Weather Forecast

Advertisements
Track Severe Weather on mobile